createdAt,value
2022-10-04T00:00:11.934Z,0
2022-10-04T00:01:12.527Z,0
2022-10-04T00:02:13.168Z,0
2022-10-04T00:03:13.794Z,0
2022-10-04T00:04:14.348Z,0
2022-10-04T00:05:14.943Z,0
2022-10-04T00:06:15.536Z,0
2022-10-04T00:07:16.130Z,0
2022-10-04T00:08:16.725Z,0
2022-10-04T00:09:17.318Z,0
2022-10-04T00:10:17.912Z,0
2022-10-04T00:11:18.504Z,0
2022-10-04T00:12:19.097Z,0
2022-10-04T00:13:19.693Z,0
2022-10-04T00:14:20.285Z,0
2022-10-04T00:15:20.882Z,0
2022-10-04T00:16:21.500Z,0
2022-10-04T00:17:22.087Z,0
2022-10-04T00:18:22.677Z,0
2022-10-04T00:19:23.271Z,0
2022-10-04T00:20:23.865Z,0
2022-10-04T00:21:24.457Z,0
2022-10-04T00:22:25.050Z,0
2022-10-04T00:23:25.648Z,0
2022-10-04T00:24:26.254Z,0
2022-10-04T00:25:26.834Z,0
2022-10-04T00:26:27.426Z,0
2022-10-04T00:27:28.022Z,0
2022-10-04T00:28:28.681Z,0
2022-10-04T00:29:29.222Z,0
2022-10-04T00:30:29.816Z,0
2022-10-04T00:31:30.464Z,0
2022-10-04T00:32:31.011Z,0
2022-10-04T00:33:31.605Z,0
2022-10-04T00:34:32.197Z,0
2022-10-04T00:35:32.793Z,0
2022-10-04T00:36:33.385Z,0
2022-10-04T00:37:33.980Z,0
2022-10-04T00:38:34.572Z,0
2022-10-04T00:39:35.167Z,0
2022-10-04T00:40:35.761Z,0
2022-10-04T00:41:36.357Z,0
2022-10-04T00:42:36.966Z,0
2022-10-04T00:43:37.543Z,0
2022-10-04T00:44:38.136Z,0
2022-10-04T00:45:38.733Z,0
2022-10-04T00:46:39.372Z,0
2022-10-04T00:47:39.927Z,0
2022-10-04T00:48:40.536Z,0
2022-10-04T00:49:41.132Z,0
2022-10-04T00:50:41.729Z,0
2022-10-04T00:51:42.628Z,0
2022-10-04T00:52:43.299Z,0
2022-10-04T00:53:43.895Z,0
2022-10-04T00:54:44.495Z,0
2022-10-04T00:55:45.101Z,0
2022-10-04T00:56:45.695Z,0
2022-10-04T00:57:46.292Z,0
2022-10-04T00:58:46.884Z,0
2022-10-04T00:59:47.479Z,0
2022-10-04T01:00:48.124Z,0
2022-10-04T01:01:48.713Z,0
2022-10-04T01:02:49.276Z,0
2022-10-04T01:03:49.873Z,0
2022-10-04T01:04:50.468Z,0
2022-10-04T01:05:51.064Z,0
2022-10-04T01:06:51.656Z,0
2022-10-04T01:07:52.252Z,0
2022-10-04T01:08:52.844Z,0
2022-10-04T01:09:53.439Z,0
2022-10-04T01:10:54.034Z,0
2022-10-04T01:11:54.630Z,0
2022-10-04T01:12:55.224Z,0
2022-10-04T01:13:55.818Z,0
2022-10-04T01:14:56.412Z,0
2022-10-04T01:15:57.053Z,0
2022-10-04T01:16:57.609Z,0
2022-10-04T01:18:01.833Z,0
2022-10-04T01:18:59.794Z,0
2022-10-04T01:20:00.394Z,0
2022-10-04T01:21:00.986Z,0
2022-10-04T01:22:01.582Z,0
2022-10-04T01:23:02.195Z,0
2022-10-04T01:24:02.790Z,0
2022-10-04T01:25:03.384Z,0
2022-10-04T01:26:03.981Z,0
2022-10-04T01:27:04.575Z,0
2022-10-04T01:28:05.240Z,0
2022-10-04T01:29:05.779Z,0
2022-10-04T01:30:06.371Z,0
2022-10-04T01:31:06.999Z,0
2022-10-04T01:32:07.573Z,0
2022-10-04T01:33:08.183Z,0
2022-10-04T01:34:08.771Z,0
2022-10-04T01:35:09.367Z,0
2022-10-04T01:36:09.961Z,0
2022-10-04T01:37:10.556Z,0
2022-10-04T01:38:11.152Z,0
2022-10-04T01:39:11.746Z,0
2022-10-04T01:40:12.341Z,0
2022-10-04T01:41:12.933Z,0
2022-10-04T01:42:13.527Z,0
2022-10-04T01:43:14.121Z,0
2022-10-04T01:44:14.717Z,0
2022-10-04T01:45:15.309Z,0
2022-10-04T01:46:15.949Z,0
2022-10-04T01:47:16.499Z,0
2022-10-04T01:48:17.092Z,0
2022-10-04T01:49:17.705Z,0
2022-10-04T01:50:18.302Z,0
2022-10-04T01:51:18.898Z,0
2022-10-04T01:52:19.489Z,0
2022-10-04T01:53:20.083Z,0
2022-10-04T01:54:20.678Z,0
2022-10-04T01:55:21.276Z,0
2022-10-04T01:56:21.868Z,0
2022-10-04T01:57:22.493Z,0
2022-10-04T01:58:23.059Z,0
2022-10-04T01:59:23.651Z,0
2022-10-04T02:00:24.246Z,0
2022-10-04T02:01:24.947Z,0
2022-10-04T02:02:25.513Z,0
2022-10-04T02:03:26.108Z,0
2022-10-04T02:04:26.747Z,0
2022-10-04T02:05:27.297Z,0
2022-10-04T02:06:27.890Z,0
2022-10-04T02:07:28.486Z,0
2022-10-04T02:08:29.086Z,0
2022-10-04T02:09:29.695Z,0
2022-10-04T02:10:30.289Z,0
2022-10-04T02:11:30.904Z,0
2022-10-04T02:12:31.516Z,0
2022-10-04T02:13:32.094Z,0
2022-10-04T02:14:32.691Z,0
2022-10-04T02:15:33.286Z,0
2022-10-04T02:16:33.884Z,0
2022-10-04T02:17:34.484Z,0
2022-10-04T02:18:35.095Z,0
2022-10-04T02:19:35.688Z,0
2022-10-04T02:20:36.283Z,0
2022-10-04T02:21:36.877Z,0
2022-10-04T02:22:37.474Z,0
2022-10-04T02:23:38.067Z,0
2022-10-04T02:24:38.664Z,0
2022-10-04T02:25:39.259Z,0
2022-10-04T02:26:39.854Z,0
2022-10-04T02:27:40.446Z,0
2022-10-04T02:28:41.039Z,0
2022-10-04T02:29:41.637Z,0
2022-10-04T02:30:42.233Z,0
2022-10-04T02:31:43.080Z,0
2022-10-04T02:32:43.772Z,0
2022-10-04T02:33:44.364Z,0
2022-10-04T02:34:44.960Z,0
2022-10-04T02:35:45.575Z,0
2022-10-04T02:36:46.170Z,0
2022-10-04T02:37:46.763Z,0
2022-10-04T02:38:47.357Z,0
2022-10-04T02:39:47.956Z,0
2022-10-04T02:40:48.570Z,0
2022-10-04T02:41:49.164Z,0
2022-10-04T02:42:49.761Z,0
2022-10-04T02:43:50.355Z,0
2022-10-04T02:44:50.950Z,0
2022-10-04T02:45:51.547Z,0
2022-10-04T02:46:52.186Z,0
2022-10-04T02:47:52.765Z,0
2022-10-04T02:48:53.362Z,0
2022-10-04T02:49:53.976Z,0
2022-10-04T02:50:54.572Z,0
2022-10-04T02:51:55.173Z,0
2022-10-04T02:52:55.771Z,0
2022-10-04T02:53:59.723Z,0
2022-10-04T02:54:57.948Z,0
2022-10-04T02:55:58.542Z,0
2022-10-04T02:56:59.138Z,0
2022-10-04T02:57:59.744Z,0
2022-10-04T02:59:00.332Z,0
2022-10-04T03:00:00.927Z,0
2022-10-04T03:01:01.570Z,0
2022-10-04T03:02:02.196Z,0
2022-10-04T03:03:02.782Z,0
2022-10-04T03:04:03.377Z,0
2022-10-04T03:05:03.989Z,0
2022-10-04T03:06:04.604Z,0
2022-10-04T03:07:05.200Z,0
2022-10-04T03:08:05.793Z,0
2022-10-04T03:09:06.397Z,0
2022-10-04T03:10:06.984Z,0
2022-10-04T03:11:07.580Z,0
2022-10-04T03:12:08.172Z,0
2022-10-04T03:13:08.787Z,0
2022-10-04T03:14:09.382Z,0
2022-10-04T03:15:09.979Z,0
2022-10-04T03:16:10.616Z,0
2022-10-04T03:17:11.196Z,0
2022-10-04T03:18:11.791Z,0
2022-10-04T03:19:12.405Z,0
2022-10-04T03:20:13.000Z,0
2022-10-04T03:21:13.612Z,0
2022-10-04T03:22:14.209Z,0
2022-10-04T03:23:14.799Z,0
2022-10-04T03:24:15.396Z,0
2022-10-04T03:25:16.008Z,0
2022-10-04T03:26:16.603Z,0
2022-10-04T03:27:17.195Z,0
2022-10-04T03:28:17.860Z,0
2022-10-04T03:29:18.418Z,0
2022-10-04T03:30:19.012Z,0
2022-10-04T03:31:19.622Z,0
2022-10-04T03:32:20.199Z,0
2022-10-04T03:33:20.795Z,0
2022-10-04T03:34:21.389Z,0
2022-10-04T03:35:21.982Z,0
2022-10-04T03:36:22.577Z,0
2022-10-04T03:37:23.169Z,0
2022-10-04T03:38:23.767Z,0
2022-10-04T03:39:24.381Z,0
2022-10-04T03:40:24.974Z,0
2022-10-04T03:41:25.566Z,0
2022-10-04T03:42:26.163Z,0
2022-10-04T03:43:26.776Z,0
2022-10-04T03:44:27.371Z,0
2022-10-04T03:45:27.977Z,0
2022-10-04T03:46:28.577Z,0
2022-10-04T03:47:29.174Z,0
2022-10-04T03:48:29.816Z,0
2022-10-04T03:49:30.411Z,0
2022-10-04T03:50:31.002Z,0
2022-10-04T03:51:31.598Z,0
2022-10-04T03:52:32.212Z,0
2022-10-04T03:53:32.806Z,0
2022-10-04T03:54:33.397Z,0
2022-10-04T03:55:33.991Z,0
2022-10-04T03:56:34.587Z,0
2022-10-04T03:57:35.177Z,0
2022-10-04T03:58:35.770Z,0
2022-10-04T03:59:36.364Z,0
2022-10-04T04:00:36.977Z,0
2022-10-04T04:01:37.646Z,0
2022-10-04T04:02:41.354Z,0
2022-10-04T04:03:39.786Z,0
2022-10-04T04:04:40.402Z,0
2022-10-04T04:05:40.993Z,0
2022-10-04T04:06:41.592Z,0
2022-10-04T04:07:42.202Z,0
2022-10-04T04:08:42.804Z,0
2022-10-04T04:09:43.390Z,0
2022-10-04T04:10:43.985Z,0
2022-10-04T04:11:44.579Z,0
2022-10-04T04:12:45.178Z,0
2022-10-04T04:13:45.767Z,0
2022-10-04T04:14:46.360Z,0
2022-10-04T04:15:46.953Z,0
2022-10-04T04:16:47.548Z,0
2022-10-04T04:17:48.141Z,0
2022-10-04T04:18:48.736Z,0
2022-10-04T04:19:49.329Z,0
2022-10-04T04:20:49.922Z,0
2022-10-04T04:21:50.517Z,0
2022-10-04T04:22:51.113Z,0
2022-10-04T04:23:51.708Z,0
2022-10-04T04:24:52.322Z,0
2022-10-04T04:25:52.919Z,0
2022-10-04T04:26:53.511Z,0
2022-10-04T04:27:54.131Z,0
2022-10-04T04:28:54.695Z,0
2022-10-04T04:29:55.291Z,0
2022-10-04T04:30:55.886Z,0
2022-10-04T04:31:56.515Z,0
2022-10-04T04:32:57.071Z,0
2022-10-04T04:33:57.664Z,0
2022-10-04T04:34:58.260Z,0
2022-10-04T04:35:58.852Z,0
2022-10-04T04:36:59.448Z,0
2022-10-04T04:38:00.043Z,0
2022-10-04T04:39:00.632Z,0
2022-10-04T04:40:01.228Z,0
2022-10-04T04:41:01.826Z,0
2022-10-04T04:42:02.419Z,0
2022-10-04T04:43:03.023Z,0
2022-10-04T04:44:03.610Z,0
2022-10-04T04:45:04.205Z,0
2022-10-04T04:46:26.038Z,0
2022-10-04T04:47:06.384Z,0
2022-10-04T04:48:06.972Z,0
2022-10-04T04:49:07.568Z,0
2022-10-04T04:50:08.160Z,0
2022-10-04T04:51:08.761Z,0
2022-10-04T04:52:09.349Z,0
2022-10-04T04:53:09.943Z,0
2022-10-04T04:54:10.536Z,0
2022-10-04T04:55:11.130Z,0
2022-10-04T04:56:15.175Z,4
2022-10-04T04:57:13.310Z,4
2022-10-04T04:58:13.903Z,0
2022-10-04T04:59:14.497Z,4
2022-10-04T05:00:15.101Z,4
2022-10-04T05:01:15.757Z,4
2022-10-04T05:02:16.381Z,8
2022-10-04T05:03:16.952Z,8
2022-10-04T05:04:17.568Z,8
2022-10-04T05:05:18.164Z,8
2022-10-04T05:06:18.777Z,12
2022-10-04T05:07:19.372Z,16
2022-10-04T05:08:19.967Z,20
2022-10-04T05:09:20.583Z,20
2022-10-04T05:10:21.177Z,24
2022-10-04T05:11:21.773Z,32
2022-10-04T05:12:22.370Z,36
2022-10-04T05:13:22.962Z,44
2022-10-04T05:14:23.556Z,52
2022-10-04T05:15:24.150Z,60
2022-10-04T05:16:24.810Z,72
2022-10-04T05:17:25.376Z,84
2022-10-04T05:18:25.967Z,96
2022-10-04T05:19:26.568Z,112
2022-10-04T05:20:27.159Z,128
2022-10-04T05:21:27.755Z,140
2022-10-04T05:22:28.350Z,160
2022-10-04T05:23:28.946Z,176
2022-10-04T05:24:29.543Z,200
2022-10-04T05:25:30.140Z,224
2022-10-04T05:26:30.736Z,244
2022-10-04T05:27:31.334Z,276
2022-10-04T05:28:31.996Z,304
2022-10-04T05:29:32.562Z,348
2022-10-04T05:30:33.159Z,388
2022-10-04T05:31:33.805Z,440
2022-10-04T05:32:34.355Z,488
2022-10-04T05:33:34.950Z,528
2022-10-04T05:34:35.547Z,572
2022-10-04T05:35:36.144Z,620
2022-10-04T05:36:36.742Z,672
2022-10-04T05:37:37.339Z,728
2022-10-04T05:38:37.937Z,792
2022-10-04T05:39:38.556Z,864
2022-10-04T05:40:39.175Z,932
2022-10-04T05:41:39.774Z,996
2022-10-04T05:42:40.372Z,1064
2022-10-04T05:43:40.970Z,1132
2022-10-04T05:44:41.570Z,1196
2022-10-04T05:45:42.203Z,1256
2022-10-04T05:46:44.161Z,1316
2022-10-04T05:47:44.356Z,1380
2022-10-04T05:48:44.956Z,1444
2022-10-04T05:49:45.556Z,1524
2022-10-04T05:50:46.152Z,1624
2022-10-04T05:51:46.751Z,1736
2022-10-04T05:52:47.349Z,1844
2022-10-04T05:53:47.948Z,1956
2022-10-04T05:54:48.544Z,2064
2022-10-04T05:55:49.145Z,2168
2022-10-04T05:56:49.741Z,2244
2022-10-04T05:57:50.355Z,2320
2022-10-04T05:58:50.945Z,2400
2022-10-04T05:59:51.545Z,2488
2022-10-04T06:00:52.183Z,2600
2022-10-04T06:01:52.756Z,2744
2022-10-04T06:02:53.443Z,2908
2022-10-04T06:03:54.058Z,3112
2022-10-04T06:04:54.657Z,3296
2022-10-04T06:05:55.256Z,3416
2022-10-04T06:06:55.857Z,3576
2022-10-04T06:07:56.453Z,3672
2022-10-04T06:08:57.055Z,3748
2022-10-04T06:09:57.656Z,3892
2022-10-04T06:10:58.255Z,4020
2022-10-04T06:11:58.854Z,4124
2022-10-04T06:12:59.454Z,4080
2022-10-04T06:14:00.053Z,4168
2022-10-04T06:15:00.651Z,4800
2022-10-04T06:16:01.251Z,4928
2022-10-04T06:17:01.900Z,5072
2022-10-04T06:18:02.493Z,5228
2022-10-04T06:19:03.087Z,5396
2022-10-04T06:20:03.690Z,5576
2022-10-04T06:21:04.288Z,5772
2022-10-04T06:22:04.900Z,5980
2022-10-04T06:23:05.498Z,6196
2022-10-04T06:24:06.096Z,6428
2022-10-04T06:25:06.693Z,6648
2022-10-04T06:26:07.292Z,6864
2022-10-04T06:27:07.890Z,7060
2022-10-04T06:28:08.548Z,7204
2022-10-04T06:29:09.106Z,7284
2022-10-04T06:30:09.705Z,7364
2022-10-04T06:31:10.337Z,7436
2022-10-04T06:32:10.898Z,7476
2022-10-04T06:33:11.496Z,7496
2022-10-04T06:34:12.095Z,7508
2022-10-04T06:35:12.691Z,7516
2022-10-04T06:36:13.291Z,7544
2022-10-04T06:37:13.965Z,7584
2022-10-04T06:38:14.532Z,7632
2022-10-04T06:39:15.128Z,7680
2022-10-04T06:40:15.730Z,7732
2022-10-04T06:41:16.328Z,7796
2022-10-04T06:42:16.932Z,7852
2022-10-04T06:43:17.527Z,7932
2022-10-04T06:44:18.134Z,8012
2022-10-04T06:45:18.747Z,8116
2022-10-04T06:46:19.414Z,8236
2022-10-04T06:47:20.010Z,8364
2022-10-04T06:48:20.609Z,8512
2022-10-04T06:49:21.205Z,8660
2022-10-04T06:50:21.805Z,8808
2022-10-04T06:51:22.403Z,8960
2022-10-04T06:52:23.000Z,9120
2022-10-04T06:53:23.599Z,9296
2022-10-04T06:54:24.215Z,9496
2022-10-04T06:55:24.812Z,9736
2022-10-04T06:56:25.411Z,9956
2022-10-04T06:57:26.008Z,10152
2022-10-04T06:58:26.609Z,10336
2022-10-04T06:59:27.205Z,10472
2022-10-04T07:00:27.805Z,10588
2022-10-04T07:01:28.452Z,10668
2022-10-04T07:02:29.103Z,10700
2022-10-04T07:03:29.653Z,10720
2022-10-04T07:04:41.112Z,10848
2022-10-04T07:05:30.869Z,10932
2022-10-04T07:06:31.467Z,10832
2022-10-04T07:07:32.067Z,10796
2022-10-04T07:08:32.677Z,10956
2022-10-04T07:09:33.265Z,11152
2022-10-04T07:10:33.883Z,11372
2022-10-04T07:11:34.499Z,11560
2022-10-04T07:12:35.098Z,11652
2022-10-04T07:13:35.698Z,11536
2022-10-04T07:14:36.315Z,11512
2022-10-04T07:15:36.946Z,11492
2022-10-04T07:16:37.521Z,11628
2022-10-04T07:17:38.120Z,11852
2022-10-04T07:18:38.721Z,12068
2022-10-04T07:19:39.330Z,12172
2022-10-04T07:20:39.921Z,12896
2022-10-04T07:21:40.962Z,13156
2022-10-04T07:22:41.716Z,13232
2022-10-04T07:23:42.314Z,13240
2022-10-04T07:24:42.927Z,13332
2022-10-04T07:25:43.533Z,13792
2022-10-04T07:26:44.134Z,14924
2022-10-04T07:27:44.735Z,13988
2022-10-04T07:28:45.356Z,14672
2022-10-04T07:29:45.956Z,16568
2022-10-04T07:30:46.613Z,18016
2022-10-04T07:31:47.299Z,18432
2022-10-04T07:32:47.925Z,18080
2022-10-04T07:33:48.524Z,18112
2022-10-04T07:34:49.123Z,16576
2022-10-04T07:35:49.726Z,16540
2022-10-04T07:36:50.344Z,19360
2022-10-04T07:37:50.976Z,20256
2022-10-04T07:38:51.576Z,20320
2022-10-04T07:39:52.174Z,19136
2022-10-04T07:40:52.773Z,17888
2022-10-04T07:41:53.372Z,16428
2022-10-04T07:42:53.973Z,16372
2022-10-04T07:43:54.577Z,16624
2022-10-04T07:44:55.175Z,17540
2022-10-04T07:45:55.926Z,17212
2022-10-04T07:46:56.465Z,18816
2022-10-04T07:47:57.065Z,19168
2022-10-04T07:48:57.664Z,18496
2022-10-04T07:49:58.266Z,18720
2022-10-04T07:50:58.865Z,20960
2022-10-04T07:51:59.468Z,24032
2022-10-04T07:53:00.086Z,27072
2022-10-04T07:54:00.686Z,28256
2022-10-04T07:55:01.285Z,29920
2022-10-04T07:56:01.884Z,31264
2022-10-04T07:57:02.484Z,31616
2022-10-04T07:58:03.102Z,31968
2022-10-04T07:59:03.700Z,32000
2022-10-04T08:00:04.300Z,31776
2022-10-04T08:01:04.903Z,32576
2022-10-04T08:02:05.590Z,31936
2022-10-04T08:03:06.195Z,31744
2022-10-04T08:04:06.810Z,32704
2022-10-04T08:05:07.409Z,36000
2022-10-04T08:06:08.012Z,28992
2022-10-04T08:07:08.610Z,22944
2022-10-04T08:08:09.209Z,27904
2022-10-04T08:09:09.845Z,27424
2022-10-04T08:10:10.431Z,23776
2022-10-04T08:11:11.037Z,23552
2022-10-04T08:12:11.650Z,27808
2022-10-04T08:13:12.252Z,35744
2022-10-04T08:14:12.852Z,31104
2022-10-04T08:15:13.458Z,31648
2022-10-04T08:16:14.140Z,22272
2022-10-04T08:17:15.920Z,26272
2022-10-04T08:18:15.314Z,27008
2022-10-04T08:19:15.916Z,28640
2022-10-04T08:20:16.519Z,28256
2022-10-04T08:21:17.120Z,25824
2022-10-04T08:22:17.722Z,26496
2022-10-04T08:23:18.320Z,29536
2022-10-04T08:24:18.922Z,30240
2022-10-04T08:25:19.527Z,32160
2022-10-04T08:26:20.126Z,33504
2022-10-04T08:27:20.726Z,34976
2022-10-04T08:28:21.386Z,37184
2022-10-04T08:29:21.947Z,37184
2022-10-04T08:30:22.548Z,37184
2022-10-04T08:31:23.164Z,37952
2022-10-04T08:32:23.748Z,35904
2022-10-04T08:33:24.347Z,30400
2022-10-04T08:34:24.968Z,28896
2022-10-04T08:35:25.571Z,32832
2022-10-04T08:36:26.190Z,34944
2022-10-04T08:37:26.790Z,32608
2022-10-04T08:38:27.412Z,29824
2022-10-04T08:39:28.035Z,32704
2022-10-04T08:40:28.685Z,40128
2022-10-04T08:41:29.285Z,40864
2022-10-04T08:42:29.887Z,31904
2022-10-04T08:43:30.487Z,30336
2022-10-04T08:44:31.086Z,39008
2022-10-04T08:45:31.687Z,46816
2022-10-04T08:46:32.338Z,39008
2022-10-04T08:47:32.889Z,31616
2022-10-04T08:48:33.492Z,34560
2022-10-04T08:49:34.092Z,40416
2022-10-04T08:50:34.691Z,44192
2022-10-04T08:51:35.292Z,41472
2022-10-04T08:52:35.894Z,35296
2022-10-04T08:53:36.492Z,32128
2022-10-04T08:54:37.095Z,34976
2022-10-04T08:55:37.696Z,42336
2022-10-04T08:56:38.295Z,45664
2022-10-04T08:57:38.896Z,41120
2022-10-04T08:58:39.499Z,37760
2022-10-04T08:59:40.096Z,43520
2022-10-04T09:00:40.704Z,54304
2022-10-04T09:01:41.372Z,55264
2022-10-04T09:02:42.053Z,43584
2022-10-04T09:03:42.588Z,36448
2022-10-04T09:04:43.188Z,45152
2022-10-04T09:05:43.787Z,60736
2022-10-04T09:06:44.687Z,66336
2022-10-04T09:07:45.627Z,60416
2022-10-04T09:08:46.228Z,52832
2022-10-04T09:09:46.829Z,58688
2022-10-04T09:10:47.430Z,71520
2022-10-04T09:11:48.031Z,72320
2022-10-04T09:12:48.632Z,63776
2022-10-04T09:13:49.274Z,63296
2022-10-04T09:14:49.859Z,74048
2022-10-04T09:15:50.527Z,82304
2022-10-04T09:16:51.070Z,76448
2022-10-04T09:17:51.672Z,60736
2022-10-04T09:18:52.275Z,51552
2022-10-04T09:19:52.874Z,59136
2022-10-04T09:20:53.496Z,69312
2022-10-04T09:21:54.095Z,70272
2022-10-04T09:22:54.697Z,62400
2022-10-04T09:23:55.302Z,51968
2022-10-04T09:24:55.921Z,48832
2022-10-04T09:25:56.521Z,54112
2022-10-04T09:26:57.125Z,56224
2022-10-04T09:27:57.827Z,54400
2022-10-04T09:29:03.928Z,50688
2022-10-04T09:30:00.008Z,47488
2022-10-04T09:31:00.671Z,47488
2022-10-04T09:32:01.223Z,46304
2022-10-04T09:33:01.826Z,48672
2022-10-04T09:34:02.426Z,60832
2022-10-04T09:35:03.028Z,70336
2022-10-04T09:36:03.628Z,69824
2022-10-04T09:37:04.232Z,64256
2022-10-04T09:38:04.832Z,61280
2022-10-04T09:39:28.520Z,64224
2022-10-04T09:40:06.050Z,66080
2022-10-04T09:41:06.658Z,65344
2022-10-04T09:42:07.252Z,63872
2022-10-04T09:43:07.873Z,66592
2022-10-04T09:44:08.478Z,71168
2022-10-04T09:45:09.076Z,73216
2022-10-04T09:46:09.740Z,75072
2022-10-04T09:47:10.297Z,76864
2022-10-04T09:48:10.896Z,78944
2022-10-04T09:49:11.498Z,81952
2022-10-04T09:50:12.100Z,86016
2022-10-04T09:51:12.704Z,83008
2022-10-04T09:52:13.325Z,77536
2022-10-04T09:53:13.929Z,74144
2022-10-04T09:54:14.528Z,74592
2022-10-04T09:55:15.129Z,78944
2022-10-04T09:56:15.732Z,84512
2022-10-04T09:57:16.334Z,85952
2022-10-04T09:58:16.955Z,84160
2022-10-04T09:59:17.559Z,83552
2022-10-04T10:00:18.158Z,83360
2022-10-04T10:01:18.823Z,86432
2022-10-04T10:02:19.413Z,84832
2022-10-04T10:03:20.040Z,75104
2022-10-04T10:04:20.621Z,65056
2022-10-04T10:05:21.224Z,63168
2022-10-04T10:06:21.844Z,69888
2022-10-04T10:07:22.446Z,76608
2022-10-04T10:08:28.010Z,75680
2022-10-04T10:09:24.643Z,69248
2022-10-04T10:10:25.241Z,61856
2022-10-04T10:11:25.842Z,58720
2022-10-04T10:12:26.444Z,67072
2022-10-04T10:13:31.793Z,79808
2022-10-04T10:14:28.636Z,83840
2022-10-04T10:15:29.235Z,77696
2022-10-04T10:16:30.050Z,71104
2022-10-04T10:17:30.643Z,67584
2022-10-04T10:18:31.242Z,66272
2022-10-04T10:19:31.843Z,70656
2022-10-04T10:20:32.443Z,75168
2022-10-04T10:21:33.045Z,83520
2022-10-04T10:22:33.644Z,95296
2022-10-04T10:23:34.248Z,100096
2022-10-04T10:24:34.848Z,95648
2022-10-04T10:25:35.447Z,91264
2022-10-04T10:26:36.048Z,88224
2022-10-04T10:27:36.648Z,88960
2022-10-04T10:28:37.302Z,98016
2022-10-04T10:29:37.865Z,110464
2022-10-04T10:30:38.467Z,114336
2022-10-04T10:31:39.116Z,110528
2022-10-04T10:32:39.678Z,95840
2022-10-04T10:33:40.295Z,83584
2022-10-04T10:34:40.896Z,87936
2022-10-04T10:35:41.497Z,101376
2022-10-04T10:36:42.502Z,114368
2022-10-04T10:37:43.348Z,118432
2022-10-04T10:38:43.951Z,116032
2022-10-04T10:39:44.570Z,105824
2022-10-04T10:40:45.172Z,94784
2022-10-04T10:41:45.793Z,89280
2022-10-04T10:42:46.397Z,88160
2022-10-04T10:43:46.998Z,87040
2022-10-04T10:44:47.599Z,86464
2022-10-04T10:45:48.212Z,83520
2022-10-04T10:46:49.329Z,79264
2022-10-04T10:47:50.084Z,75648
2022-10-04T10:48:50.683Z,80288
2022-10-04T10:49:51.287Z,84960
2022-10-04T10:50:51.887Z,81568
2022-10-04T10:51:52.488Z,79360
2022-10-04T10:52:53.088Z,85280
2022-10-04T10:53:53.690Z,90720
2022-10-04T10:54:54.292Z,94880
2022-10-04T10:55:54.895Z,94432
2022-10-04T10:56:55.497Z,89600
2022-10-04T10:57:56.097Z,88608
2022-10-04T10:58:56.697Z,92096
2022-10-04T10:59:57.298Z,94144
2022-10-04T11:00:57.921Z,99872
2022-10-04T11:01:58.709Z,108544
2022-10-04T11:03:12.162Z,114848
2022-10-04T11:04:00.964Z,116352
2022-10-04T11:05:01.521Z,114816
2022-10-04T11:06:02.124Z,102432
2022-10-04T11:07:02.751Z,89760
2022-10-04T11:08:03.369Z,84384
2022-10-04T11:09:03.967Z,86560
2022-10-04T11:10:04.573Z,94752
2022-10-04T11:11:05.193Z,106944
2022-10-04T11:12:05.800Z,115616
2022-10-04T11:13:06.420Z,107968
2022-10-04T11:14:07.023Z,92832
2022-10-04T11:15:07.625Z,83296
2022-10-04T11:16:08.270Z,94624
2022-10-04T11:17:08.896Z,111488
2022-10-04T11:18:09.496Z,118272
2022-10-04T11:19:10.099Z,108096
2022-10-04T11:20:10.701Z,88480
2022-10-04T11:21:11.301Z,71776
2022-10-04T11:22:11.905Z,69024
2022-10-04T11:23:12.505Z,76704
2022-10-04T11:24:13.108Z,79296
2022-10-04T11:25:13.710Z,73376
2022-10-04T11:26:14.317Z,68960
2022-10-04T11:27:14.913Z,63360
2022-10-04T11:28:15.563Z,68896
2022-10-04T11:29:16.145Z,75328
2022-10-04T11:30:16.741Z,80768
2022-10-04T11:31:17.391Z,79776
2022-10-04T11:32:18.040Z,75840
2022-10-04T11:33:18.642Z,77984
2022-10-04T11:34:19.246Z,82208
2022-10-04T11:35:19.869Z,87296
2022-10-04T11:36:20.472Z,91040
2022-10-04T11:37:21.072Z,85120
2022-10-04T11:38:21.674Z,89760
2022-10-04T11:39:22.275Z,98592
2022-10-04T11:40:22.877Z,117120
2022-10-04T11:41:23.478Z,131136
2022-10-04T11:42:24.079Z,129984
2022-10-04T11:43:24.681Z,119232
2022-10-04T11:44:25.285Z,104704
2022-10-04T11:45:25.885Z,93568
2022-10-04T11:46:26.518Z,94112
2022-10-04T11:47:27.087Z,96832
2022-10-04T11:48:27.690Z,105920
2022-10-04T11:49:28.310Z,110304
2022-10-04T11:50:28.939Z,106080
2022-10-04T11:51:29.515Z,97472
2022-10-04T11:52:30.118Z,95712
2022-10-04T11:53:30.718Z,93216
2022-10-04T11:54:31.317Z,95872
2022-10-04T11:55:31.916Z,98624
2022-10-04T11:56:32.518Z,98208
2022-10-04T11:57:33.121Z,93408
2022-10-04T11:58:33.720Z,93824
2022-10-04T11:59:34.327Z,99552
2022-10-04T12:00:34.946Z,103936
2022-10-04T12:01:35.549Z,106592
2022-10-04T12:02:36.202Z,105088
2022-10-04T12:03:36.846Z,105440
2022-10-04T12:04:37.467Z,101856
2022-10-04T12:05:38.028Z,98752
2022-10-04T12:06:38.648Z,92704
2022-10-04T12:07:39.250Z,81600
2022-10-04T12:08:39.850Z,74720
2022-10-04T12:09:40.452Z,70880
2022-10-04T12:10:41.054Z,76000
2022-10-04T12:11:41.655Z,81184
2022-10-04T12:12:42.255Z,86848
2022-10-04T12:13:42.857Z,82688
2022-10-04T12:14:43.460Z,70592
2022-10-04T12:15:44.081Z,61664
2022-10-04T12:16:45.093Z,70560
2022-10-04T12:17:45.791Z,88224
2022-10-04T12:18:46.396Z,104288
2022-10-04T12:19:47.002Z,108800
2022-10-04T12:20:47.598Z,102048
2022-10-04T12:21:48.205Z,88736
2022-10-04T12:22:48.825Z,78464
2022-10-04T12:23:49.431Z,82176
2022-10-04T12:24:50.050Z,90848
2022-10-04T12:25:50.654Z,95136
2022-10-04T12:26:51.288Z,91712
2022-10-04T12:27:51.888Z,97120
2022-10-04T12:28:52.475Z,99392
2022-10-04T12:29:53.095Z,101120
2022-10-04T12:30:53.697Z,98112
2022-10-04T12:31:54.322Z,94816
2022-10-04T12:32:58.026Z,98624
2022-10-04T12:33:56.519Z,108160
2022-10-04T12:34:57.122Z,118304
2022-10-04T12:35:57.724Z,117536
2022-10-04T12:36:58.330Z,108192
2022-10-04T12:37:58.956Z,100544
2022-10-04T12:38:59.553Z,102944
2022-10-04T12:40:00.184Z,105632
2022-10-04T12:41:00.755Z,99360
2022-10-04T12:42:01.360Z,92224
2022-10-04T12:43:01.961Z,88288
2022-10-04T12:44:02.565Z,87296
2022-10-04T12:45:03.166Z,93632
2022-10-04T12:46:03.834Z,96320
2022-10-04T12:47:04.398Z,93440
2022-10-04T12:48:04.998Z,83808
2022-10-04T12:49:05.602Z,75840
2022-10-04T12:50:06.285Z,75040
2022-10-04T12:51:06.825Z,92192
2022-10-04T12:52:07.431Z,116928
2022-10-04T12:53:08.032Z,130624
2022-10-04T12:54:08.638Z,127520
2022-10-04T12:55:09.239Z,116640
2022-10-04T12:56:09.838Z,97024
2022-10-04T12:57:10.442Z,79616
2022-10-04T12:58:11.059Z,72832
2022-10-04T12:59:11.650Z,77568
2022-10-04T13:00:12.249Z,91008
2022-10-04T13:01:12.866Z,109248
2022-10-04T13:02:13.512Z,117728
2022-10-04T13:03:14.071Z,111136
2022-10-04T13:04:14.695Z,96288
2022-10-04T13:05:15.295Z,84192
2022-10-04T13:06:15.897Z,87264
2022-10-04T13:07:16.497Z,98144
2022-10-04T13:08:17.108Z,104032
2022-10-04T13:09:17.728Z,96064
2022-10-04T13:10:26.067Z,87456
2022-10-04T13:11:19.946Z,85504
2022-10-04T13:12:20.555Z,91072
2022-10-04T13:13:21.159Z,98912
2022-10-04T13:14:21.765Z,105184
2022-10-04T13:15:22.378Z,105120
2022-10-04T13:17:34.730Z,101472
2022-10-04T13:18:26.185Z,95840
2022-10-04T13:19:26.806Z,85088
2022-10-04T13:20:27.426Z,71936
2022-10-04T13:21:28.033Z,68960
2022-10-04T13:22:54.726Z,76960
2022-10-04T13:23:30.255Z,85984
2022-10-04T13:24:30.856Z,80160
2022-10-04T13:25:31.459Z,64288
2022-10-04T13:26:32.116Z,46880
2022-10-04T13:27:32.681Z,47680
2022-10-04T13:28:33.338Z,68000
2022-10-04T13:29:33.914Z,92192
2022-10-04T13:30:34.524Z,107584
2022-10-04T13:31:35.225Z,107360
2022-10-04T13:32:35.789Z,96672
2022-10-04T13:33:36.390Z,87488
2022-10-04T13:34:36.993Z,89664
2022-10-04T13:35:37.595Z,101760
2022-10-04T13:36:38.199Z,110976
2022-10-04T13:37:38.801Z,110880
2022-10-04T13:38:39.402Z,98368
2022-10-04T13:39:40.004Z,81824
2022-10-04T13:40:40.607Z,77760
2022-10-04T13:41:41.230Z,79232
2022-10-04T13:42:41.830Z,77120
2022-10-04T13:43:42.430Z,74976